sensor_id;sensor_type;location;lat;lon;timestamp;pressure;altitude;pressure_sealevel;temperature;humidity
65983;BME280;52740;40.620;-8.640;2022-10-04T00:01:11;101912.31;;;15.61;100.00
65983;BME280;52740;40.620;-8.640;2022-10-04T00:03:31;101919.44;;;15.62;100.00
65983;BME280;52740;40.620;-8.640;2022-10-04T00:05:36;101919.00;;;15.60;100.00
65983;BME280;52740;40.620;-8.640;2022-10-04T00:07:42;101915.88;;;15.61;100.00
65983;BME280;52740;40.620;-8.640;2022-10-04T00:09:56;101917.38;;;15.59;100.00
65983;BME280;52740;40.620;-8.640;2022-10-04T00:12:00;101920.59;;;15.61;100.00
65983;BME280;52740;40.620;-8.640;2022-10-04T00:14:19;101920.59;;;15.61;100.00
65983;BME280;52740;40.620;-8.640;2022-10-04T00:16:26;101920.69;;;15.68;100.00
65983;BME280;52740;40.620;-8.640;2022-10-04T00:18:40;101930.88;;;15.64;100.00
65983;BME280;52740;40.620;-8.640;2022-10-04T00:25:33;101920.00;;;15.74;100.00
65983;BME280;52740;40.620;-8.640;2022-10-04T00:27:38;101924.41;;;15.79;100.00
65983;BME280;52740;40.620;-8.640;2022-10-04T00:29:40;101931.94;;;15.82;100.00
65983;BME280;52740;40.620;-8.640;2022-10-04T00:38:27;101926.22;;;15.98;100.00
65983;BME280;52740;40.620;-8.640;2022-10-04T00:40:34;101923.47;;;15.98;100.00
65983;BME280;52740;40.620;-8.640;2022-10-04T00:42:43;101929.16;;;16.08;100.00
65983;BME280;52740;40.620;-8.640;2022-10-04T00:47:00;101927.94;;;16.06;100.00
65983;BME280;52740;40.620;-8.640;2022-10-04T00:49:04;101915.72;;;16.10;100.00
65983;BME280;52740;40.620;-8.640;2022-10-04T00:55:57;101913.34;;;16.09;100.00
65983;BME280;52740;40.620;-8.640;2022-10-04T00:58:02;101909.78;;;16.08;100.00
65983;BME280;52740;40.620;-8.640;2022-10-04T01:00:12;101913.31;;;16.05;100.00
65983;BME280;52740;40.620;-8.640;2022-10-04T01:02:20;101914.88;;;16.06;100.00
65983;BME280;52740;40.620;-8.640;2022-10-04T01:04:36;101906.19;;;16.04;100.00
65983;BME280;52740;40.620;-8.640;2022-10-04T01:06:39;101906.28;;;16.11;100.00
65983;BME280;52740;40.620;-8.640;2022-10-04T01:08:50;101913.84;;;16.14;100.00
65983;BME280;52740;40.620;-8.640;2022-10-04T01:11:00;101908.19;;;16.07;100.00
65983;BME280;52740;40.620;-8.640;2022-10-04T01:13:15;101915.38;;;16.12;100.00
65983;BME280;52740;40.620;-8.640;2022-10-04T01:15:38;101902.41;;;16.19;100.00
65983;BME280;52740;40.620;-8.640;2022-10-04T01:18:35;101904.13;;;16.28;100.00
65983;BME280;52740;40.620;-8.640;2022-10-04T01:20:36;101900.59;;;16.31;100.00
65983;BME280;52740;40.620;-8.640;2022-10-04T01:22:48;101889.19;;;16.36;100.00
65983;BME280;52740;40.620;-8.640;2022-10-04T01:24:49;101900.63;;;16.34;100.00
65983;BME280;52740;40.620;-8.640;2022-10-04T01:26:50;101901.09;;;16.40;100.00
65983;BME280;52740;40.620;-8.640;2022-10-04T01:28:56;101888.09;;;16.44;100.00
65983;BME280;52740;40.620;-8.640;2022-10-04T01:31:00;101886.03;;;16.37;100.00
65983;BME280;52740;40.620;-8.640;2022-10-04T01:33:00;101883.69;;;16.39;100.00
65983;BME280;52740;40.620;-8.640;2022-10-04T01:35:03;101886.34;;;16.29;100.00
65983;BME280;52740;40.620;-8.640;2022-10-04T01:37:04;101883.50;;;16.21;100.00
65983;BME280;52740;40.620;-8.640;2022-10-04T01:39:05;101887.75;;;16.15;100.00
65983;BME280;52740;40.620;-8.640;2022-10-04T01:41:07;101881.78;;;16.10;100.00
65983;BME280;52740;40.620;-8.640;2022-10-04T01:43:11;101890.78;;;16.03;100.00
65983;BME280;52740;40.620;-8.640;2022-10-04T01:45:26;101890.31;;;15.98;100.00
65983;BME280;52740;40.620;-8.640;2022-10-04T01:49:37;101892.50;;;15.85;100.00
65983;BME280;52740;40.620;-8.640;2022-10-04T01:51:48;101891.34;;;15.86;100.00
65983;BME280;52740;40.620;-8.640;2022-10-04T01:54:17;101883.97;;;15.97;100.00
65983;BME280;52740;40.620;-8.640;2022-10-04T01:56:23;101877.69;;;15.97;100.00
65983;BME280;52740;40.620;-8.640;2022-10-04T01:58:30;101872.88;;;15.94;100.00
65983;BME280;52740;40.620;-8.640;2022-10-04T02:00:32;101877.16;;;15.88;100.00
65983;BME280;52740;40.620;-8.640;2022-10-04T02:04:40;101876.09;;;15.96;100.00
65983;BME280;52740;40.620;-8.640;2022-10-04T02:06:43;101876.16;;;16.03;100.00
65983;BME280;52740;40.620;-8.640;2022-10-04T02:08:48;101878.56;;;16.04;100.00
65983;BME280;52740;40.620;-8.640;2022-10-04T02:10:50;101875.69;;;15.97;100.00
65983;BME280;52740;40.620;-8.640;2022-10-04T02:12:54;101873.69;;;15.94;100.00
65983;BME280;52740;40.620;-8.640;2022-10-04T02:14:59;101870.56;;;15.96;100.00
65983;BME280;52740;40.620;-8.640;2022-10-04T02:17:02;101874.84;;;15.93;100.00
65983;BME280;52740;40.620;-8.640;2022-10-04T02:19:08;101876.03;;;15.92;100.00
65983;BME280;52740;40.620;-8.640;2022-10-04T02:21:10;101862.56;;;15.87;100.00
65983;BME280;52740;40.620;-8.640;2022-10-04T02:23:12;101872.56;;;15.69;100.00
65983;BME280;52740;40.620;-8.640;2022-10-04T02:25:17;101872.72;;;15.80;100.00
65983;BME280;52740;40.620;-8.640;2022-10-04T02:27:19;101878.88;;;15.69;100.00
65983;BME280;52740;40.620;-8.640;2022-10-04T02:29:25;101872.72;;;15.80;100.00
65983;BME280;52740;40.620;-8.640;2022-10-04T02:31:26;101861.59;;;15.76;100.00
65983;BME280;52740;40.620;-8.640;2022-10-04T02:33:48;101865.59;;;15.78;100.00
65983;BME280;52740;40.620;-8.640;2022-10-04T02:35:49;101870.72;;;15.80;100.00
65983;BME280;52740;40.620;-8.640;2022-10-04T02:38:02;101865.59;;;15.78;100.00
65983;BME280;52740;40.620;-8.640;2022-10-04T02:40:12;101869.75;;;15.95;100.00
65983;BME280;52740;40.620;-8.640;2022-10-04T02:42:25;101870.91;;;15.94;100.00
65983;BME280;52740;40.620;-8.640;2022-10-04T02:44:43;101867.00;;;15.95;100.00
65983;BME280;52740;40.620;-8.640;2022-10-04T02:47:10;101863.28;;;15.84;100.00
65983;BME280;52740;40.620;-8.640;2022-10-04T02:49:25;101856.19;;;15.83;100.00
65983;BME280;52740;40.620;-8.640;2022-10-04T02:54:13;101854.63;;;15.86;100.00
65983;BME280;52740;40.620;-8.640;2022-10-04T02:56:17;101850.56;;;15.76;100.00
65983;BME280;52740;40.620;-8.640;2022-10-04T02:58:21;101841.94;;;15.81;100.00
65983;BME280;52740;40.620;-8.640;2022-10-04T03:02:29;101852.06;;;15.70;100.00
65983;BME280;52740;40.620;-8.640;2022-10-04T03:04:32;101857.16;;;15.68;100.00
65983;BME280;52740;40.620;-8.640;2022-10-04T03:06:36;101853.03;;;15.55;100.00
65983;BME280;52740;40.620;-8.640;2022-10-04T03:08:50;101855.16;;;15.65;100.00
65983;BME280;52740;40.620;-8.640;2022-10-04T03:10:52;101853.50;;;15.60;100.00
65983;BME280;52740;40.620;-8.640;2022-10-04T03:12:53;101844.75;;;15.55;100.00
65983;BME280;52740;40.620;-8.640;2022-10-04T03:14:54;101840.50;;;15.61;100.00
65983;BME280;52740;40.620;-8.640;2022-10-04T03:16:57;101833.28;;;15.53;100.00
65983;BME280;52740;40.620;-8.640;2022-10-04T03:19:00;101828.59;;;15.57;100.00
65983;BME280;52740;40.620;-8.640;2022-10-04T03:21:02;101833.28;;;15.53;100.00
65983;BME280;52740;40.620;-8.640;2022-10-04T03:23:05;101829.53;;;15.42;100.00
65983;BME280;52740;40.620;-8.640;2022-10-04T03:25:13;101828.06;;;15.48;100.00
65983;BME280;52740;40.620;-8.640;2022-10-04T03:27:20;101836.34;;;15.48;100.00
65983;BME280;52740;40.620;-8.640;2022-10-04T03:29:24;101840.69;;;15.49;100.00
65983;BME280;52740;40.620;-8.640;2022-10-04T03:31:27;101827.84;;;15.33;100.00
65983;BME280;52740;40.620;-8.640;2022-10-04T03:33:29;101838.44;;;15.31;100.00
65983;BME280;52740;40.620;-8.640;2022-10-04T03:35:34;101841.91;;;15.25;100.00
65983;BME280;52740;40.620;-8.640;2022-10-04T03:37:37;101843.53;;;15.26;100.00
65983;BME280;52740;40.620;-8.640;2022-10-04T03:39:43;101831.88;;;15.40;100.00
65983;BME280;52740;40.620;-8.640;2022-10-04T03:41:44;101835.28;;;15.29;100.00
65983;BME280;52740;40.620;-8.640;2022-10-04T03:43:47;101830.25;;;15.35;100.00
65983;BME280;52740;40.620;-8.640;2022-10-04T03:45:49;101839.75;;;15.38;100.00
65983;BME280;52740;40.620;-8.640;2022-10-04T03:47:51;101830.66;;;15.37;100.00
65983;BME280;52740;40.620;-8.640;2022-10-04T03:49:56;101837.41;;;15.40;100.00
65983;BME280;52740;40.620;-8.640;2022-10-04T03:51:58;101834.66;;;15.40;100.00
65983;BME280;52740;40.620;-8.640;2022-10-04T03:54:00;101839.31;;;15.36;100.00
65983;BME280;52740;40.620;-8.640;2022-10-04T03:56:10;101846.09;;;15.42;100.00
65983;BME280;52740;40.620;-8.640;2022-10-04T03:58:15;101847.00;;;15.23;100.00
65983;BME280;52740;40.620;-8.640;2022-10-04T04:00:17;101849.97;;;15.11;100.00
65983;BME280;52740;40.620;-8.640;2022-10-04T04:07:09;101851.31;;;15.20;100.00
65983;BME280;52740;40.620;-8.640;2022-10-04T04:09:20;101843.47;;;15.22;100.00
65983;BME280;52740;40.620;-8.640;2022-10-04T04:11:24;101846.41;;;15.37;100.00
65983;BME280;52740;40.620;-8.640;2022-10-04T04:15:33;101832.63;;;15.37;100.00
65983;BME280;52740;40.620;-8.640;2022-10-04T04:17:45;101825.88;;;15.34;100.00
65983;BME280;52740;40.620;-8.640;2022-10-04T04:19:47;101829.31;;;15.27;100.00
65983;BME280;52740;40.620;-8.640;2022-10-04T04:21:48;101823.06;;;15.30;100.00
65983;BME280;52740;40.620;-8.640;2022-10-04T04:23:55;101826.97;;;15.26;100.00
65983;BME280;52740;40.620;-8.640;2022-10-04T04:26:12;101825.19;;;15.14;100.00
65983;BME280;52740;40.620;-8.640;2022-10-04T04:28:31;101830.06;;;14.98;100.00
65983;BME280;52740;40.620;-8.640;2022-10-04T04:30:35;101867.78;;;14.91;100.00
65983;BME280;52740;40.620;-8.640;2022-10-04T04:32:39;101854.03;;;14.94;100.00
65983;BME280;52740;40.620;-8.640;2022-10-04T04:34:58;101850.13;;;14.95;100.00
65983;BME280;52740;40.620;-8.640;2022-10-04T04:37:01;101849.56;;;14.86;100.00
65983;BME280;52740;40.620;-8.640;2022-10-04T04:41:32;101865.19;;;15.01;100.00
65983;BME280;52740;40.620;-8.640;2022-10-04T04:43:42;101853.53;;;15.11;100.00
65983;BME280;52740;40.620;-8.640;2022-10-04T04:45:44;101865.38;;;15.12;100.00
65983;BME280;52740;40.620;-8.640;2022-10-04T04:47:52;101855.66;;;15.21;100.00
65983;BME280;52740;40.620;-8.640;2022-10-04T04:49:57;101854.16;;;15.01;100.00
65983;BME280;52740;40.620;-8.640;2022-10-04T04:52:02;101857.75;;;15.05;100.00
65983;BME280;52740;40.620;-8.640;2022-10-04T04:54:05;101859.94;;;15.19;100.00
65983;BME280;52740;40.620;-8.640;2022-10-04T04:56:07;101860.34;;;15.17;100.00
65983;BME280;52740;40.620;-8.640;2022-10-04T04:58:23;101863.91;;;15.18;100.00
65983;BME280;52740;40.620;-8.640;2022-10-04T05:00:30;101859.94;;;15.19;100.00
65983;BME280;52740;40.620;-8.640;2022-10-04T05:02:35;101868.63;;;15.17;100.00
65983;BME280;52740;40.620;-8.640;2022-10-04T05:04:36;101851.22;;;15.13;100.00
65983;BME280;52740;40.620;-8.640;2022-10-04T05:06:39;101867.78;;;15.13;100.00
65983;BME280;52740;40.620;-8.640;2022-10-04T05:08:48;101868.44;;;15.07;100.00
65983;BME280;52740;40.620;-8.640;2022-10-04T05:13:03;101868.28;;;14.96;100.00
65983;BME280;52740;40.620;-8.640;2022-10-04T05:15:08;101873.00;;;14.96;100.00
65983;BME280;52740;40.620;-8.640;2022-10-04T05:17:21;101866.25;;;14.93;100.00
65983;BME280;52740;40.620;-8.640;2022-10-04T05:19:29;101869.53;;;15.02;100.00
65983;BME280;52740;40.620;-8.640;2022-10-04T05:21:33;101866.72;;;14.99;100.00
65983;BME280;52740;40.620;-8.640;2022-10-04T05:23:35;101866.78;;;15.02;100.00
65983;BME280;52740;40.620;-8.640;2022-10-04T05:25:36;101870.59;;;14.94;100.00
65983;BME280;52740;40.620;-8.640;2022-10-04T05:27:39;101882.69;;;14.86;100.00
65983;BME280;52740;40.620;-8.640;2022-10-04T05:36:51;101878.94;;;14.75;100.00
65983;BME280;52740;40.620;-8.640;2022-10-04T05:39:02;101873.00;;;14.73;100.00
65983;BME280;52740;40.620;-8.640;2022-10-04T05:41:36;101871.84;;;14.74;100.00
65983;BME280;52740;40.620;-8.640;2022-10-04T05:43:44;101868.56;;;14.68;100.00
65983;BME280;52740;40.620;-8.640;2022-10-04T05:45:46;101861.28;;;14.57;100.00
65983;BME280;52740;40.620;-8.640;2022-10-04T05:47:50;101877.72;;;14.72;100.00
65983;BME280;52740;40.620;-8.640;2022-10-04T05:49:56;101884.44;;;14.75;100.00
65983;BME280;52740;40.620;-8.640;2022-10-04T05:52:04;101876.34;;;14.63;100.00
65983;BME280;52740;40.620;-8.640;2022-10-04T05:54:08;101884.03;;;14.73;100.00
65983;BME280;52740;40.620;-8.640;2022-10-04T05:58:57;101879.72;;;14.75;100.00
65983;BME280;52740;40.620;-8.640;2022-10-04T06:06:00;101872.44;;;14.64;100.00
65983;BME280;52740;40.620;-8.640;2022-10-04T06:08:12;101879.78;;;14.79;100.00
65983;BME280;52740;40.620;-8.640;2022-10-04T06:22:16;101883.47;;;14.64;100.00
65983;BME280;52740;40.620;-8.640;2022-10-04T06:24:20;101896.13;;;14.46;100.00
65983;BME280;52740;40.620;-8.640;2022-10-04T06:26:34;101892.84;;;14.40;100.00
65983;BME280;52740;40.620;-8.640;2022-10-04T06:28:44;101902.00;;;14.44;100.00
65983;BME280;52740;40.620;-8.640;2022-10-04T06:40:18;101917.78;;;14.28;100.00
65983;BME280;52740;40.620;-8.640;2022-10-04T06:44:56;101929.59;;;14.09;100.00
65983;BME280;52740;40.620;-8.640;2022-10-04T06:49:40;101942.19;;;14.26;100.00
65983;BME280;52740;40.620;-8.640;2022-10-04T06:54:45;101946.03;;;14.21;100.00
65983;BME280;52740;40.620;-8.640;2022-10-04T07:01:25;101963.03;;;14.27;100.00
65983;BME280;52740;40.620;-8.640;2022-10-04T07:06:03;101979.19;;;13.90;100.00
65983;BME280;52740;40.620;-8.640;2022-10-04T07:10:50;101978.78;;;14.07;100.00
65983;BME280;52740;40.620;-8.640;2022-10-04T07:13:03;101978.31;;;14.05;100.00
65983;BME280;52740;40.620;-8.640;2022-10-04T07:15:19;101987.19;;;14.14;100.00
65983;BME280;52740;40.620;-8.640;2022-10-04T07:17:27;101987.78;;;14.23;100.00
65983;BME280;52740;40.620;-8.640;2022-10-04T07:23:51;101991.06;;;14.48;100.00
65983;BME280;52740;40.620;-8.640;2022-10-04T07:25:54;101995.09;;;14.51;100.00
65983;BME280;52740;40.620;-8.640;2022-10-04T07:30:35;101998.53;;;14.28;100.00
65983;BME280;52740;40.620;-8.640;2022-10-04T07:32:43;101993.28;;;14.39;100.00
65983;BME280;52740;40.620;-8.640;2022-10-04T07:37:00;101997.91;;;14.54;100.00
65983;BME280;52740;40.620;-8.640;2022-10-04T07:39:13;101994.69;;;14.33;100.00
65983;BME280;52740;40.620;-8.640;2022-10-04T07:41:25;101998.00;;;14.23;100.00
65983;BME280;52740;40.620;-8.640;2022-10-04T07:43:30;101995.41;;;14.30;100.00
65983;BME280;52740;40.620;-8.640;2022-10-04T07:45:34;101996.53;;;14.44;100.00
65983;BME280;52740;40.620;-8.640;2022-10-04T07:47:36;102010.03;;;14.50;100.00
65983;BME280;52740;40.620;-8.640;2022-10-04T07:49:39;102001.38;;;14.70;100.00
65983;BME280;52740;40.620;-8.640;2022-10-04T07:54:15;102000.16;;;14.68;100.00
65983;BME280;52740;40.620;-8.640;2022-10-04T07:56:37;102004.34;;;14.81;100.00
65983;BME280;52740;40.620;-8.640;2022-10-04T07:59:21;102002.63;;;14.73;100.00
65983;BME280;52740;40.620;-8.640;2022-10-04T08:09:23;102019.06;;;15.08;100.00
65983;BME280;52740;40.620;-8.640;2022-10-04T08:20:10;102029.81;;;15.36;100.00
65983;BME280;52740;40.620;-8.640;2022-10-04T08:24:54;102020.41;;;15.40;100.00
65983;BME280;52740;40.620;-8.640;2022-10-04T08:36:30;102009.34;;;15.59;100.00
65983;BME280;52740;40.620;-8.640;2022-10-04T08:43:01;102005.09;;;15.65;100.00
65983;BME280;52740;40.620;-8.640;2022-10-04T08:51:22;102005.69;;;16.34;100.00
65983;BME280;52740;40.620;-8.640;2022-10-04T08:58:28;101998.09;;;16.91;100.00
65983;BME280;52740;40.620;-8.640;2022-10-04T09:20:19;102011.69;;;18.63;100.00
65983;BME280;52740;40.620;-8.640;2022-10-04T09:22:53;102014.53;;;18.81;100.00
65983;BME280;52740;40.620;-8.640;2022-10-04T09:27:13;102005.91;;;19.21;100.00
65983;BME280;52740;40.620;-8.640;2022-10-04T09:30:00;102013.41;;;19.03;100.00
65983;BME280;52740;40.620;-8.640;2022-10-04T09:36:29;102010.25;;;19.93;100.00
65983;BME280;52740;40.620;-8.640;2022-10-04T10:00:21;102024.03;;;20.50;100.00
65983;BME280;52740;40.620;-8.640;2022-10-04T10:04:54;102009.59;;;20.83;100.00
65983;BME280;52740;40.620;-8.640;2022-10-04T10:08:07;102011.03;;;21.12;100.00
65983;BME280;52740;40.620;-8.640;2022-10-04T10:09:53;102016.72;;;21.50;100.00
65983;BME280;52740;40.620;-8.640;2022-10-04T10:27:14;102001.94;;;21.01;100.00
65983;BME280;52740;40.620;-8.640;2022-10-04T10:36:22;102000.28;;;21.59;100.00
65983;BME280;52740;40.620;-8.640;2022-10-04T10:43:57;101998.84;;;21.88;100.00
65983;BME280;52740;40.620;-8.640;2022-10-04T10:51:23;101994.06;;;22.26;100.00
65983;BME280;52740;40.620;-8.640;2022-10-04T10:56:30;101989.13;;;22.41;100.00
65983;BME280;52740;40.620;-8.640;2022-10-04T10:58:57;101994.91;;;22.23;100.00
65983;BME280;52740;40.620;-8.640;2022-10-04T11:13:51;101985.63;;;22.94;100.00
65983;BME280;52740;40.620;-8.640;2022-10-04T11:23:35;101992.59;;;23.32;100.00
65983;BME280;52740;40.620;-8.640;2022-10-04T11:48:32;102008.41;;;21.43;100.00
65983;BME280;52740;40.620;-8.640;2022-10-04T11:54:01;102010.63;;;21.07;100.00
65983;BME280;52740;40.620;-8.640;2022-10-04T11:58:48;102004.00;;;20.83;100.00
65983;BME280;52740;40.620;-8.640;2022-10-04T12:08:17;102005.22;;;21.44;100.00
65983;BME280;52740;40.620;-8.640;2022-10-04T12:10:27;102004.06;;;21.38;100.00
65983;BME280;52740;40.620;-8.640;2022-10-04T12:12:48;102000.44;;;21.45;100.00
65983;BME280;52740;40.620;-8.640;2022-10-04T12:31:23;101978.53;;;23.13;100.00
65983;BME280;52740;40.620;-8.640;2022-10-04T12:40:05;101982.38;;;24.15;96.50
65983;BME280;52740;40.620;-8.640;2022-10-04T12:47:42;101972.75;;;24.92;87.60
65983;BME280;52740;40.620;-8.640;2022-10-04T12:49:54;101960.06;;;24.67;86.20
65983;BME280;52740;40.620;-8.640;2022-10-04T12:54:44;101952.72;;;24.38;89.40
65983;BME280;52740;40.620;-8.640;2022-10-04T12:56:52;101950.91;;;24.47;88.05
65983;BME280;52740;40.620;-8.640;2022-10-04T13:04:13;101948.31;;;23.54;93.14
65983;BME280;52740;40.620;-8.640;2022-10-04T13:06:50;101937.13;;;23.77;93.05
65983;BME280;52740;40.620;-8.640;2022-10-04T13:11:35;101935.16;;;24.89;84.57
65983;BME280;52740;40.620;-8.640;2022-10-04T13:22:16;101922.19;;;24.43;89.16
65983;BME280;52740;40.620;-8.640;2022-10-04T13:24:57;101913.00;;;24.43;90.08
65983;BME280;52740;40.620;-8.640;2022-10-04T13:27:08;101917.84;;;24.58;89.60
65983;BME280;52740;40.620;-8.640;2022-10-04T13:29:43;101908.66;;;24.58;91.97
65983;BME280;52740;40.620;-8.640;2022-10-04T13:32:03;101907.53;;;25.36;87.91
65983;BME280;52740;40.620;-8.640;2022-10-04T13:44:46;101898.03;;;25.01;94.29
65983;BME280;52740;40.620;-8.640;2022-10-04T13:53:58;101895.81;;;24.24;99.36
65983;BME280;52740;40.620;-8.640;2022-10-04T13:59:29;101891.59;;;24.68;93.77
65983;BME280;52740;40.620;-8.640;2022-10-04T14:02:11;101890.41;;;23.94;99.63
65983;BME280;52740;40.620;-8.640;2022-10-04T14:12:06;101888.63;;;24.23;99.30
65983;BME280;52740;40.620;-8.640;2022-10-04T14:14:37;101882.22;;;24.03;100.00
65983;BME280;52740;40.620;-8.640;2022-10-04T14:17:22;101885.09;;;23.80;100.00
65983;BME280;52740;40.620;-8.640;2022-10-04T14:38:57;101875.16;;;22.32;100.00
65983;BME280;52740;40.620;-8.640;2022-10-04T14:41:30;101880.94;;;22.18;100.00
65983;BME280;52740;40.620;-8.640;2022-10-04T14:44:07;101878.03;;;21.95;100.00
65983;BME280;52740;40.620;-8.640;2022-10-04T14:46:27;101876.75;;;22.33;100.00
65983;BME280;52740;40.620;-8.640;2022-10-04T15:06:57;101875.34;;;22.18;100.00
65983;BME280;52740;40.620;-8.640;2022-10-04T15:17:35;101865.66;;;21.62;100.00
65983;BME280;52740;40.620;-8.640;2022-10-04T15:20:00;101856.16;;;21.56;100.00
65983;BME280;52740;40.620;-8.640;2022-10-04T15:22:22;101874.66;;;21.39;100.00
65983;BME280;52740;40.620;-8.640;2022-10-04T15:24:44;101862.63;;;21.46;100.00
65983;BME280;52740;40.620;-8.640;2022-10-04T15:28:56;101874.88;;;21.11;100.00
65983;BME280;52740;40.620;-8.640;2022-10-04T15:38:50;101854.75;;;20.89;100.00
65983;BME280;52740;40.620;-8.640;2022-10-04T15:49:14;101846.13;;;20.77;100.00
65983;BME280;52740;40.620;-8.640;2022-10-04T15:53:54;101840.91;;;20.20;100.00
65983;BME280;52740;40.620;-8.640;2022-10-04T15:58:48;101845.41;;;19.89;100.00
65983;BME280;52740;40.620;-8.640;2022-10-04T16:01:03;101833.44;;;20.03;100.00
65983;BME280;52740;40.620;-8.640;2022-10-04T16:05:44;101851.66;;;20.14;100.00
65983;BME280;52740;40.620;-8.640;2022-10-04T16:15:39;101854.28;;;19.49;100.00
65983;BME280;52740;40.620;-8.640;2022-10-04T16:17:52;101853.50;;;19.38;100.00
65983;BME280;52740;40.620;-8.640;2022-10-04T16:20:18;101858.25;;;19.51;100.00
65983;BME280;52740;40.620;-8.640;2022-10-04T16:22:31;101848.72;;;19.56;100.00
65983;BME280;52740;40.620;-8.640;2022-10-04T16:24:55;101850.28;;;19.64;100.00
65983;BME280;52740;40.620;-8.640;2022-10-04T16:27:40;101844.72;;;19.60;100.00
65983;BME280;52740;40.620;-8.640;2022-10-04T16:31:57;101840.81;;;19.47;100.00
65983;BME280;52740;40.620;-8.640;2022-10-04T16:36:21;101836.75;;;19.66;100.00
65983;BME280;52740;40.620;-8.640;2022-10-04T16:38:27;101844.28;;;19.76;100.00
65983;BME280;52740;40.620;-8.640;2022-10-04T16:40:36;101833.19;;;19.69;100.00
65983;BME280;52740;40.620;-8.640;2022-10-04T16:49:38;101823.28;;;19.64;100.00
65983;BME280;52740;40.620;-8.640;2022-10-04T16:59:14;101829.72;;;19.26;100.00
65983;BME280;52740;40.620;-8.640;2022-10-04T17:06:48;101824.16;;;19.12;100.00
65983;BME280;52740;40.620;-8.640;2022-10-04T17:12:17;101821.41;;;18.90;100.00
65983;BME280;52740;40.620;-8.640;2022-10-04T17:14:00;101823.00;;;18.81;100.00
65983;BME280;52740;40.620;-8.640;2022-10-04T17:16:11;101828.53;;;18.81;100.00
65983;BME280;52740;40.620;-8.640;2022-10-04T17:18:29;101823.38;;;18.83;100.00
65983;BME280;52740;40.620;-8.640;2022-10-04T17:25:52;101821.81;;;18.82;100.00
65983;BME280;52740;40.620;-8.640;2022-10-04T17:28:00;101836.06;;;18.66;100.00
65983;BME280;52740;40.620;-8.640;2022-10-04T17:30:12;101835.25;;;18.62;100.00
65983;BME280;52740;40.620;-8.640;2022-10-04T17:35:15;101828.88;;;18.44;100.00
65983;BME280;52740;40.620;-8.640;2022-10-04T17:37:39;101826.47;;;18.35;100.00
65983;BME280;52740;40.620;-8.640;2022-10-04T17:47:27;101835.47;;;17.97;100.00
65983;BME280;52740;40.620;-8.640;2022-10-04T17:50:12;101839.44;;;17.92;100.00
65983;BME280;52740;40.620;-8.640;2022-10-04T17:53:16;101833.06;;;17.81;100.00
65983;BME280;52740;40.620;-8.640;2022-10-04T17:55:35;101831.81;;;17.68;100.00
65983;BME280;52740;40.620;-8.640;2022-10-04T17:59:52;101838.41;;;17.49;100.00
65983;BME280;52740;40.620;-8.640;2022-10-04T18:02:21;101837.94;;;17.40;100.00
65983;BME280;52740;40.620;-8.640;2022-10-04T18:04:26;101836.72;;;17.38;100.00
65983;BME280;52740;40.620;-8.640;2022-10-04T18:06:32;101835.53;;;17.32;100.00
65983;BME280;52740;40.620;-8.640;2022-10-04T18:13:58;101836.19;;;17.11;100.00
65983;BME280;52740;40.620;-8.640;2022-10-04T18:16:03;101839.28;;;17.02;100.00
65983;BME280;52740;40.620;-8.640;2022-10-04T18:18:16;101830.56;;;17.00;100.00
65983;BME280;52740;40.620;-8.640;2022-10-04T18:20:30;101843.97;;;16.98;100.00
65983;BME280;52740;40.620;-8.640;2022-10-04T18:22:47;101846.69;;;16.91;100.00
65983;BME280;52740;40.620;-8.640;2022-10-04T18:25:16;101843.94;;;16.95;100.00
65983;BME280;52740;40.620;-8.640;2022-10-04T18:27:20;101839.16;;;16.88;100.00
65983;BME280;52740;40.620;-8.640;2022-10-04T18:29:35;101843.03;;;16.80;100.00
65983;BME280;52740;40.620;-8.640;2022-10-04T18:31:38;101844.59;;;16.78;100.00
65983;BME280;52740;40.620;-8.640;2022-10-04T18:35:53;101858.03;;;16.76;100.00
65983;BME280;52740;40.620;-8.640;2022-10-04T18:38:23;101860.00;;;16.75;100.00
65983;BME280;52740;40.620;-8.640;2022-10-04T18:41:00;101859.16;;;16.71;100.00
65983;BME280;52740;40.620;-8.640;2022-10-04T18:43:01;101857.88;;;16.61;100.00
65983;BME280;52740;40.620;-8.640;2022-10-04T18:45:17;101866.22;;;16.65;100.00
65983;BME280;52740;40.620;-8.640;2022-10-04T18:47:33;101866.97;;;16.62;100.00
65983;BME280;52740;40.620;-8.640;2022-10-04T18:49:46;101874.47;;;16.61;100.00
65983;BME280;52740;40.620;-8.640;2022-10-04T18:57:04;101871.50;;;16.44;100.00
65983;BME280;52740;40.620;-8.640;2022-10-04T19:07:00;101870.00;;;16.16;100.00
65983;BME280;52740;40.620;-8.640;2022-10-04T19:09:23;101873.56;;;16.17;100.00
65983;BME280;52740;40.620;-8.640;2022-10-04T19:16:07;101871.94;;;16.12;100.00
65983;BME280;52740;40.620;-8.640;2022-10-04T19:20:45;101868.25;;;16.01;100.00
65983;BME280;52740;40.620;-8.640;2022-10-04T19:23:07;101874.19;;;16.03;100.00
65983;BME280;52740;40.620;-8.640;2022-10-04T19:25:52;101867.41;;;15.97;100.00
65983;BME280;52740;40.620;-8.640;2022-10-04T19:28:17;101866.16;;;15.91;100.00
65983;BME280;52740;40.620;-8.640;2022-10-04T19:30:45;101879.97;;;15.91;100.00
65983;BME280;52740;40.620;-8.640;2022-10-04T19:41:58;101894.75;;;15.76;100.00
65983;BME280;52740;40.620;-8.640;2022-10-04T19:46:54;101906.50;;;15.69;100.00
65983;BME280;52740;40.620;-8.640;2022-10-04T19:48:57;101909.94;;;15.63;100.00
65983;BME280;52740;40.620;-8.640;2022-10-04T19:51:13;101911.22;;;15.69;100.00
65983;BME280;52740;40.620;-8.640;2022-10-04T19:53:19;101910.44;;;15.68;100.00
65983;BME280;52740;40.620;-8.640;2022-10-04T19:58:00;101919.78;;;15.60;100.00
65983;BME280;52740;40.620;-8.640;2022-10-04T20:00:13;101920.53;;;15.57;100.00